Terminal Aerodrome Forecast
Issued by NWS

Home | Current Version | Previous Version | Text Only | Print | Product List | Glossary On
Versions: 1 2 3 4 5 6 7 8 9 10 11 12 13 14 15
000
FTUS45 KRIW 261136
TAFCOD
TAF
KCOD 261136Z 2612/2712 VRB06KT P6SM VCSH SCT060 BKN100
     FM261800 05008KT P6SM VCTS SCT030CB BKN050
     FM270300 VRB05KT P6SM VCSH SCT040 BKN060
     FM270700 VRB05KT P6SM SCT050
      AMD LTD TO CLD VIS AND WIND=

USA.gov is the U.S. government's official web portal to all federal, state and local government web resources and services.